sensor_id;sensor_type;location;lat;lon;timestamp;pressure;altitude;pressure_sealevel;temperature;humidity
21234;BME280;10774;42.178;26.578;2023-11-18T00:00:34;99079.69;;;10.71;100.00
21234;BME280;10774;42.178;26.578;2023-11-18T00:02:59;99073.94;;;10.76;100.00
21234;BME280;10774;42.178;26.578;2023-11-18T00:05:25;99077.09;;;10.69;100.00
21234;BME280;10774;42.178;26.578;2023-11-18T00:07:50;99069.69;;;10.73;100.00
21234;BME280;10774;42.178;26.578;2023-11-18T00:10:16;99073.47;;;10.82;100.00
21234;BME280;10774;42.178;26.578;2023-11-18T00:12:42;99072.59;;;10.70;100.00
21234;BME280;10774;42.178;26.578;2023-11-18T00:15:08;99067.00;;;10.84;100.00
21234;BME280;10774;42.178;26.578;2023-11-18T00:17:36;99072.50;;;10.83;100.00
21234;BME280;10774;42.178;26.578;2023-11-18T00:20:01;99074.69;;;11.00;100.00
21234;BME280;10774;42.178;26.578;2023-11-18T00:22:33;99075.66;;;11.10;100.00
21234;BME280;10774;42.178;26.578;2023-11-18T00:24:59;99078.84;;;11.15;100.00
21234;BME280;10774;42.178;26.578;2023-11-18T00:27:25;99074.69;;;11.22;100.00
21234;BME280;10774;42.178;26.578;2023-11-18T00:29:50;99079.34;;;11.09;100.00
21234;BME280;10774;42.178;26.578;2023-11-18T00:32:15;99080.56;;;10.94;100.00
21234;BME280;10774;42.178;26.578;2023-11-18T00:34:41;99084.72;;;11.09;100.00
21234;BME280;10774;42.178;26.578;2023-11-18T00:37:07;99079.31;;;11.32;100.00
21234;BME280;10774;42.178;26.578;2023-11-18T00:39:32;99074.94;;;11.31;100.00
21234;BME280;10774;42.178;26.578;2023-11-18T00:41:58;99072.00;;;11.34;100.00
21234;BME280;10774;42.178;26.578;2023-11-18T00:44:24;99059.91;;;11.39;100.00
21234;BME280;10774;42.178;26.578;2023-11-18T00:46:49;99056.59;;;11.36;100.00
21234;BME280;10774;42.178;26.578;2023-11-18T00:49:15;99055.38;;;11.17;100.00
21234;BME280;10774;42.178;26.578;2023-11-18T00:51:40;99061.50;;;11.19;100.00
21234;BME280;10774;42.178;26.578;2023-11-18T00:54:08;99047.56;;;11.25;100.00
21234;BME280;10774;42.178;26.578;2023-11-18T00:56:35;99053.66;;;11.27;100.00
21234;BME280;10774;42.178;26.578;2023-11-18T00:59:00;99035.25;;;11.34;100.00
21234;BME280;10774;42.178;26.578;2023-11-18T01:01:29;99040.75;;;11.21;100.00
21234;BME280;10774;42.178;26.578;2023-11-18T01:03:54;99051.59;;;11.31;100.00
21234;BME280;10774;42.178;26.578;2023-11-18T01:06:25;99030.72;;;11.35;100.00
21234;BME280;10774;42.178;26.578;2023-11-18T01:08:50;99040.69;;;11.55;100.00
21234;BME280;10774;42.178;26.578;2023-11-18T01:11:16;99039.69;;;11.56;100.00
21234;BME280;10774;42.178;26.578;2023-11-18T01:13:48;99049.53;;;11.01;100.00
21234;BME280;10774;42.178;26.578;2023-11-18T01:16:14;99038.31;;;10.85;100.00
21234;BME280;10774;42.178;26.578;2023-11-18T01:18:41;99043.78;;;11.17;100.00
21234;BME280;10774;42.178;26.578;2023-11-18T01:21:06;99033.44;;;11.23;100.00
21234;BME280;10774;42.178;26.578;2023-11-18T01:23:37;99032.41;;;11.36;100.00
21234;BME280;10774;42.178;26.578;2023-11-18T01:26:06;99046.34;;;11.41;100.00
21234;BME280;10774;42.178;26.578;2023-11-18T01:28:36;99061.59;;;11.40;100.00
21234;BME280;10774;42.178;26.578;2023-11-18T01:31:05;99049.03;;;11.30;100.00
21234;BME280;10774;42.178;26.578;2023-11-18T01:33:38;99061.06;;;11.58;100.00
21234;BME280;10774;42.178;26.578;2023-11-18T01:36:06;99069.78;;;11.50;100.00
21234;BME280;10774;42.178;26.578;2023-11-18T01:38:32;99052.22;;;11.35;100.00
21234;BME280;10774;42.178;26.578;2023-11-18T01:40:57;99042.13;;;10.93;100.00
21234;BME280;10774;42.178;26.578;2023-11-18T01:43:22;99034.28;;;10.79;100.00
21234;BME280;10774;42.178;26.578;2023-11-18T01:45:48;99042.63;;;10.76;100.00
21234;BME280;10774;42.178;26.578;2023-11-18T01:48:14;99043.19;;;10.68;100.00
21234;BME280;10774;42.178;26.578;2023-11-18T01:50:41;99024.19;;;10.60;100.00
21234;BME280;10774;42.178;26.578;2023-11-18T01:53:09;99028.56;;;10.72;100.00
21234;BME280;10774;42.178;26.578;2023-11-18T01:55:36;99023.44;;;10.69;100.00
21234;BME280;10774;42.178;26.578;2023-11-18T01:58:02;99022.22;;;10.62;100.00
21234;BME280;10774;42.178;26.578;2023-11-18T02:00:42;98996.22;;;10.40;100.00
21234;BME280;10774;42.178;26.578;2023-11-18T02:03:08;99024.06;;;10.73;100.00
21234;BME280;10774;42.178;26.578;2023-11-18T02:05:34;99024.66;;;10.77;100.00
21234;BME280;10774;42.178;26.578;2023-11-18T02:08:02;99024.19;;;10.83;100.00
21234;BME280;10774;42.178;26.578;2023-11-18T02:10:30;99037.72;;;10.81;100.00
21234;BME280;10774;42.178;26.578;2023-11-18T02:13:33;99033.44;;;10.79;100.00
21234;BME280;10774;42.178;26.578;2023-11-18T02:16:01;99040.28;;;10.83;100.00
21234;BME280;10774;42.178;26.578;2023-11-18T02:18:29;99040.28;;;10.83;100.00
21234;BME280;10774;42.178;26.578;2023-11-18T02:20:56;99027.47;;;10.75;100.00
21234;BME280;10774;42.178;26.578;2023-11-18T02:23:27;99033.69;;;10.87;100.00
21234;BME280;10774;42.178;26.578;2023-11-18T02:25:53;99021.25;;;10.74;100.00
21234;BME280;10774;42.178;26.578;2023-11-18T02:28:21;99019.53;;;10.73;100.00
21234;BME280;10774;42.178;26.578;2023-11-18T02:30:46;99012.34;;;10.74;100.00
21234;BME280;10774;42.178;26.578;2023-11-18T02:35:52;99002.78;;;9.90;100.00
21234;BME280;10774;42.178;26.578;2023-11-18T02:38:22;99010.81;;;9.90;100.00
21234;BME280;10774;42.178;26.578;2023-11-18T02:40:52;99015.19;;;9.91;100.00
21234;BME280;10774;42.178;26.578;2023-11-18T02:43:23;99001.84;;;9.67;100.00
21234;BME280;10774;42.178;26.578;2023-11-18T02:45:49;99000.03;;;9.67;100.00
21234;BME280;10774;42.178;26.578;2023-11-18T02:48:16;99006.97;;;9.70;100.00
21234;BME280;10774;42.178;26.578;2023-11-18T02:50:43;98988.91;;;9.61;100.00
21234;BME280;10774;42.178;26.578;2023-11-18T02:53:09;98981.72;;;9.61;100.00
21234;BME280;10774;42.178;26.578;2023-11-18T02:55:35;98995.84;;;9.63;100.00
21234;BME280;10774;42.178;26.578;2023-11-18T02:58:00;98988.75;;;9.51;100.00
21234;BME280;10774;42.178;26.578;2023-11-18T03:00:27;98988.50;;;9.54;100.00
21234;BME280;10774;42.178;26.578;2023-11-18T03:02:53;98999.97;;;9.56;100.00
21234;BME280;10774;42.178;26.578;2023-11-18T03:05:19;98998.22;;;9.44;100.00
21234;BME280;10774;42.178;26.578;2023-11-18T03:07:48;99009.03;;;9.42;100.00
21234;BME280;10774;42.178;26.578;2023-11-18T03:10:22;99016.66;;;9.36;100.00
21234;BME280;10774;42.178;26.578;2023-11-18T03:12:51;99042.19;;;9.53;100.00
21234;BME280;10774;42.178;26.578;2023-11-18T03:15:22;99055.59;;;9.77;100.00
21234;BME280;10774;42.178;26.578;2023-11-18T03:17:49;99054.34;;;9.93;100.00
21234;BME280;10774;42.178;26.578;2023-11-18T03:20:19;99031.47;;;9.53;100.00
21234;BME280;10774;42.178;26.578;2023-11-18T03:22:47;99035.53;;;9.58;100.00
21234;BME280;10774;42.178;26.578;2023-11-18T03:25:13;99018.88;;;9.42;100.00
21234;BME280;10774;42.178;26.578;2023-11-18T03:27:39;99017.41;;;9.38;100.00
21234;BME280;10774;42.178;26.578;2023-11-18T03:30:06;99008.13;;;9.31;100.00
21234;BME280;10774;42.178;26.578;2023-11-18T03:32:32;99000.94;;;9.31;100.00
21234;BME280;10774;42.178;26.578;2023-11-18T03:34:58;98996.88;;;9.26;100.00
21234;BME280;10774;42.178;26.578;2023-11-18T03:37:26;98977.63;;;9.21;100.00
21234;BME280;10774;42.178;26.578;2023-11-18T03:39:52;98948.53;;;9.16;100.00
21234;BME280;10774;42.178;26.578;2023-11-18T03:42:18;98971.03;;;9.13;100.00
21234;BME280;10774;42.178;26.578;2023-11-18T03:44:43;98953.78;;;9.18;100.00
21234;BME280;10774;42.178;26.578;2023-11-18T03:47:13;98985.72;;;9.32;100.00
21234;BME280;10774;42.178;26.578;2023-11-18T03:49:39;98987.88;;;9.27;100.00
21234;BME280;10774;42.178;26.578;2023-11-18T03:52:05;98980.44;;;9.19;100.00
21234;BME280;10774;42.178;26.578;2023-11-18T03:54:31;98984.03;;;9.31;100.00
21234;BME280;10774;42.178;26.578;2023-11-18T03:56:56;98986.06;;;9.27;100.00
21234;BME280;10774;42.178;26.578;2023-11-18T03:59:23;98973.94;;;9.34;100.00
21234;BME280;10774;42.178;26.578;2023-11-18T04:01:48;98987.44;;;9.33;100.00
21234;BME280;10774;42.178;26.578;2023-11-18T04:04:16;98977.63;;;9.21;100.00
21234;BME280;10774;42.178;26.578;2023-11-18T04:06:42;98998.63;;;9.51;100.00
21234;BME280;10774;42.178;26.578;2023-11-18T04:09:07;99002.47;;;9.71;100.00
21234;BME280;10774;42.178;26.578;2023-11-18T04:11:35;98999.38;;;9.88;100.00
21234;BME280;10774;42.178;26.578;2023-11-18T04:14:00;98993.34;;;10.08;100.00
21234;BME280;10774;42.178;26.578;2023-11-18T04:16:26;98993.00;;;10.13;100.00
21234;BME280;10774;42.178;26.578;2023-11-18T04:18:51;99000.78;;;10.16;100.00
21234;BME280;10774;42.178;26.578;2023-11-18T04:21:17;98998.56;;;10.10;100.00
21234;BME280;10774;42.178;26.578;2023-11-18T04:23:43;98991.13;;;10.02;100.00
21234;BME280;10774;42.178;26.578;2023-11-18T04:26:12;98986.59;;;9.91;100.00
21234;BME280;10774;42.178;26.578;2023-11-18T04:28:37;98969.19;;;9.97;100.00
21234;BME280;10774;42.178;26.578;2023-11-18T04:31:03;98968.06;;;9.53;100.00
21234;BME280;10774;42.178;26.578;2023-11-18T04:33:30;98974.75;;;9.59;100.00
21234;BME280;10774;42.178;26.578;2023-11-18T04:35:56;98977.59;;;9.68;100.00
21234;BME280;10774;42.178;26.578;2023-11-18T04:38:25;98993.22;;;9.75;100.00
21234;BME280;10774;42.178;26.578;2023-11-18T04:40:51;98988.72;;;9.75;100.00
21234;BME280;10774;42.178;26.578;2023-11-18T04:43:19;98994.53;;;10.04;100.00
21234;BME280;10774;42.178;26.578;2023-11-18T04:45:45;98989.56;;;10.11;100.00
21234;BME280;10774;42.178;26.578;2023-11-18T04:48:10;98980.31;;;10.15;100.00
21234;BME280;10774;42.178;26.578;2023-11-18T04:50:39;98977.94;;;10.34;100.00
21234;BME280;10774;42.178;26.578;2023-11-18T04:53:04;98965.91;;;10.16;100.00
21234;BME280;10774;42.178;26.578;2023-11-18T04:55:34;98973.94;;;10.05;100.00
21234;BME280;10774;42.178;26.578;2023-11-18T04:58:00;98983.22;;;9.65;100.00
21234;BME280;10774;42.178;26.578;2023-11-18T05:00:25;98977.13;;;9.75;100.00
21234;BME280;10774;42.178;26.578;2023-11-18T05:02:51;98981.91;;;9.71;100.00
21234;BME280;10774;42.178;26.578;2023-11-18T05:05:17;98984.28;;;9.63;100.00
21234;BME280;10774;42.178;26.578;2023-11-18T05:07:43;98994.56;;;9.45;100.00
21234;BME280;10774;42.178;26.578;2023-11-18T05:10:09;98982.78;;;9.24;100.00
21234;BME280;10774;42.178;26.578;2023-11-18T05:12:38;98980.69;;;9.03;100.00
21234;BME280;10774;42.178;26.578;2023-11-18T05:15:05;98993.09;;;8.68;100.00
21234;BME280;10774;42.178;26.578;2023-11-18T05:17:34;99004.72;;;8.92;100.00
21234;BME280;10774;42.178;26.578;2023-11-18T05:20:02;99003.50;;;8.96;100.00
21234;BME280;10774;42.178;26.578;2023-11-18T05:22:27;99011.97;;;9.03;100.00
21234;BME280;10774;42.178;26.578;2023-11-18T05:24:53;99018.19;;;9.03;100.00
21234;BME280;10774;42.178;26.578;2023-11-18T05:27:18;99024.13;;;9.20;100.00
21234;BME280;10774;42.178;26.578;2023-11-18T05:29:45;99031.44;;;9.18;100.00
21234;BME280;10774;42.178;26.578;2023-11-18T05:32:20;99014.84;;;9.12;100.00
21234;BME280;10774;42.178;26.578;2023-11-18T05:34:46;99008.91;;;9.20;100.00
21234;BME280;10774;42.178;26.578;2023-11-18T05:37:11;99003.94;;;8.90;100.00
21234;BME280;10774;42.178;26.578;2023-11-18T05:39:37;98997.63;;;8.91;100.00
21234;BME280;10774;42.178;26.578;2023-11-18T05:42:08;99001.44;;;9.12;100.00
21234;BME280;10774;42.178;26.578;2023-11-18T05:44:36;98990.53;;;8.53;100.00
21234;BME280;10774;42.178;26.578;2023-11-18T05:47:03;98990.84;;;8.23;100.00
21234;BME280;10774;42.178;26.578;2023-11-18T05:49:29;99001.53;;;8.10;100.00
21234;BME280;10774;42.178;26.578;2023-11-18T05:51:55;99007.91;;;7.95;100.00
21234;BME280;10774;42.178;26.578;2023-11-18T05:54:21;98991.34;;;7.90;100.00
21234;BME280;10774;42.178;26.578;2023-11-18T05:56:46;99016.06;;;8.06;100.00
21234;BME280;10774;42.178;26.578;2023-11-18T05:59:12;99013.09;;;8.24;100.00
21234;BME280;10774;42.178;26.578;2023-11-18T06:01:39;99028.94;;;8.52;100.00
21234;BME280;10774;42.178;26.578;2023-11-18T06:04:05;99001.53;;;8.10;100.00
21234;BME280;10774;42.178;26.578;2023-11-18T06:06:33;99002.38;;;8.11;100.00
21234;BME280;10774;42.178;26.578;2023-11-18T06:08:59;99001.88;;;8.19;100.00
21234;BME280;10774;42.178;26.578;2023-11-18T06:11:30;99015.50;;;8.01;100.00
21234;BME280;10774;42.178;26.578;2023-11-18T06:13:57;99011.59;;;8.20;100.00
21234;BME280;10774;42.178;26.578;2023-11-18T06:16:24;98997.69;;;8.15;100.00
21234;BME280;10774;42.178;26.578;2023-11-18T06:18:54;98992.97;;;8.31;100.00
21234;BME280;10774;42.178;26.578;2023-11-18T06:21:23;98969.78;;;8.19;100.00
21234;BME280;10774;42.178;26.578;2023-11-18T06:23:55;98986.88;;;8.03;100.00
21234;BME280;10774;42.178;26.578;2023-11-18T06:26:21;98988.91;;;8.00;100.00
21234;BME280;10774;42.178;26.578;2023-11-18T06:28:48;98984.75;;;8.08;100.00
21234;BME280;10774;42.178;26.578;2023-11-18T06:31:14;98982.06;;;8.08;100.00
21234;BME280;10774;42.178;26.578;2023-11-18T06:33:43;98974.25;;;7.93;100.00
21234;BME280;10774;42.178;26.578;2023-11-18T06:38:37;98957.38;;;7.92;100.00
21234;BME280;10774;42.178;26.578;2023-11-18T06:41:03;98949.78;;;7.86;100.00
21234;BME280;10774;42.178;26.578;2023-11-18T06:43:30;98951.34;;;7.63;100.00
21234;BME280;10774;42.178;26.578;2023-11-18T06:46:08;98929.13;;;7.63;100.00
21234;BME280;10774;42.178;26.578;2023-11-18T06:48:36;98947.63;;;7.66;100.00
21234;BME280;10774;42.178;26.578;2023-11-18T06:51:01;98944.84;;;7.67;100.00
21234;BME280;10774;42.178;26.578;2023-11-18T06:53:27;98968.59;;;7.97;100.00
21234;BME280;10774;42.178;26.578;2023-11-18T06:55:52;98955.75;;;7.77;100.00
21234;BME280;10774;42.178;26.578;2023-11-18T06:58:18;98964.09;;;7.85;100.00
21234;BME280;10774;42.178;26.578;2023-11-18T07:00:43;98964.97;;;7.98;100.00
21234;BME280;10774;42.178;26.578;2023-11-18T07:03:09;98985.25;;;7.88;100.00
21234;BME280;10774;42.178;26.578;2023-11-18T07:05:34;98987.38;;;7.83;100.00
21234;BME280;10774;42.178;26.578;2023-11-18T07:07:59;98988.22;;;7.71;100.00
21234;BME280;10774;42.178;26.578;2023-11-18T07:10:25;98985.63;;;7.56;100.00
21234;BME280;10774;42.178;26.578;2023-11-18T07:12:53;98988.19;;;7.58;100.00
21234;BME280;10774;42.178;26.578;2023-11-18T07:15:18;98971.28;;;7.45;100.00
21234;BME280;10774;42.178;26.578;2023-11-18T07:17:44;98956.84;;;7.47;100.00
21234;BME280;10774;42.178;26.578;2023-11-18T07:20:10;98928.75;;;7.42;100.00
21234;BME280;10774;42.178;26.578;2023-11-18T07:22:38;98910.38;;;7.37;100.00
21234;BME280;10774;42.178;26.578;2023-11-18T07:25:04;98914.44;;;7.43;100.00
21234;BME280;10774;42.178;26.578;2023-11-18T07:27:34;98913.81;;;7.39;100.00
21234;BME280;10774;42.178;26.578;2023-11-18T07:30:00;98929.00;;;7.51;100.00
21234;BME280;10774;42.178;26.578;2023-11-18T07:32:25;98921.72;;;7.53;100.00
21234;BME280;10774;42.178;26.578;2023-11-18T07:34:51;98890.22;;;7.46;100.00
21234;BME280;10774;42.178;26.578;2023-11-18T07:37:16;98908.31;;;7.68;100.00
21234;BME280;10774;42.178;26.578;2023-11-18T07:39:42;98897.41;;;7.71;100.00
21234;BME280;10774;42.178;26.578;2023-11-18T07:42:13;98913.97;;;7.89;100.00
21234;BME280;10774;42.178;26.578;2023-11-18T07:44:40;98938.69;;;8.18;100.00
21234;BME280;10774;42.178;26.578;2023-11-18T07:47:06;98911.28;;;8.01;100.00
21234;BME280;10774;42.178;26.578;2023-11-18T07:49:34;98908.94;;;8.22;100.00
21234;BME280;10774;42.178;26.578;2023-11-18T07:52:02;98896.03;;;8.03;100.00
21234;BME280;10774;42.178;26.578;2023-11-18T07:54:27;98889.06;;;7.63;100.00
21234;BME280;10774;42.178;26.578;2023-11-18T07:56:53;98910.47;;;7.75;100.00
21234;BME280;10774;42.178;26.578;2023-11-18T07:59:20;98919.00;;;8.06;100.00
21234;BME280;10774;42.178;26.578;2023-11-18T08:01:45;98913.56;;;8.07;100.00
21234;BME280;10774;42.178;26.578;2023-11-18T08:04:12;98925.22;;;7.81;100.00
21234;BME280;10774;42.178;26.578;2023-11-18T08:06:41;98950.00;;;7.83;100.00
21234;BME280;10774;42.178;26.578;2023-11-18T08:09:11;98944.84;;;7.80;100.00
21234;BME280;10774;42.178;26.578;2023-11-18T08:11:39;98962.84;;;8.03;100.00
21234;BME280;10774;42.178;26.578;2023-11-18T08:14:09;98948.59;;;7.65;100.00
21234;BME280;10774;42.178;26.578;2023-11-18T08:16:35;98945.38;;;7.85;100.00
21234;BME280;10774;42.178;26.578;2023-11-18T08:19:01;98956.59;;;7.65;100.00
21234;BME280;10774;42.178;26.578;2023-11-18T08:21:33;98963.09;;;7.60;100.00
21234;BME280;10774;42.178;26.578;2023-11-18T08:23:59;98974.34;;;7.66;100.00
21234;BME280;10774;42.178;26.578;2023-11-18T08:26:25;98969.94;;;7.65;100.00
21234;BME280;10774;42.178;26.578;2023-11-18T08:28:51;98963.78;;;7.77;100.00
21234;BME280;10774;42.178;26.578;2023-11-18T08:31:17;98964.31;;;7.82;100.00
21234;BME280;10774;42.178;26.578;2023-11-18T08:33:43;98966.88;;;7.71;100.00
21234;BME280;10774;42.178;26.578;2023-11-18T08:36:09;98973.06;;;7.84;100.00
21234;BME280;10774;42.178;26.578;2023-11-18T08:38:34;98971.25;;;7.72;100.00
21234;BME280;10774;42.178;26.578;2023-11-18T08:41:01;98974.56;;;7.75;100.00
21234;BME280;10774;42.178;26.578;2023-11-18T08:43:26;98972.41;;;7.68;100.00
21234;BME280;10774;42.178;26.578;2023-11-18T08:45:54;98978.91;;;7.64;100.00
21234;BME280;10774;42.178;26.578;2023-11-18T08:48:20;98981.03;;;7.58;100.00
21234;BME280;10774;42.178;26.578;2023-11-18T08:50:45;98981.75;;;7.48;100.00
21234;BME280;10774;42.178;26.578;2023-11-18T08:53:12;98974.28;;;7.53;100.00
21234;BME280;10774;42.178;26.578;2023-11-18T08:55:37;98980.53;;;7.79;100.00
21234;BME280;10774;42.178;26.578;2023-11-18T08:58:21;98987.81;;;7.77;100.00
21234;BME280;10774;42.178;26.578;2023-11-18T09:00:51;98994.28;;;7.60;100.00
21234;BME280;10774;42.178;26.578;2023-11-18T09:03:19;98986.50;;;7.70;100.00
21234;BME280;10774;42.178;26.578;2023-11-18T09:06:17;99000.13;;;7.52;100.00
21234;BME280;10774;42.178;26.578;2023-11-18T09:08:44;98977.13;;;7.77;100.00
21234;BME280;10774;42.178;26.578;2023-11-18T09:11:12;98983.69;;;7.58;100.00
21234;BME280;10774;42.178;26.578;2023-11-18T09:13:42;98978.16;;;7.62;100.00
21234;BME280;10774;42.178;26.578;2023-11-18T09:16:08;98958.66;;;7.34;100.00
21234;BME280;10774;42.178;26.578;2023-11-18T09:18:35;98968.31;;;7.49;100.00
21234;BME280;10774;42.178;26.578;2023-11-18T09:21:02;98941.56;;;7.37;100.00
21234;BME280;10774;42.178;26.578;2023-11-18T09:23:30;98950.00;;;7.43;100.00
21234;BME280;10774;42.178;26.578;2023-11-18T09:25:57;98940.28;;;7.42;100.00
21234;BME280;10774;42.178;26.578;2023-11-18T09:28:24;98924.91;;;7.33;100.00
21234;BME280;10774;42.178;26.578;2023-11-18T09:30:51;98932.41;;;7.53;100.00
21234;BME280;10774;42.178;26.578;2023-11-18T09:33:22;98920.72;;;7.29;100.00
21234;BME280;10774;42.178;26.578;2023-11-18T09:36:01;98918.38;;;7.37;100.00
21234;BME280;10774;42.178;26.578;2023-11-18T09:38:32;98889.25;;;7.47;100.00
21234;BME280;10774;42.178;26.578;2023-11-18T09:41:01;98886.03;;;7.29;100.00
21234;BME280;10774;42.178;26.578;2023-11-18T09:43:33;98886.78;;;7.31;100.00
21234;BME280;10774;42.178;26.578;2023-11-18T09:46:06;98901.91;;;7.70;100.00
21234;BME280;10774;42.178;26.578;2023-11-18T09:48:43;98897.84;;;7.90;100.00
21234;BME280;10774;42.178;26.578;2023-11-18T09:51:14;98882.88;;;7.75;100.00
21234;BME280;10774;42.178;26.578;2023-11-18T09:53:44;98901.25;;;7.79;100.00
21234;BME280;10774;42.178;26.578;2023-11-18T09:56:18;98902.97;;;7.80;100.00
21234;BME280;10774;42.178;26.578;2023-11-18T09:59:01;98906.63;;;7.92;100.00
21234;BME280;10774;42.178;26.578;2023-11-18T10:01:35;98911.31;;;7.76;100.00
21234;BME280;10774;42.178;26.578;2023-11-18T10:04:04;98923.06;;;7.86;100.00
21234;BME280;10774;42.178;26.578;2023-11-18T10:06:34;98915.59;;;7.91;100.00
21234;BME280;10774;42.178;26.578;2023-11-18T10:09:02;98912.59;;;7.83;100.00
21234;BME280;10774;42.178;26.578;2023-11-18T10:11:41;98907.88;;;7.74;100.00
21234;BME280;10774;42.178;26.578;2023-11-18T10:14:06;98903.50;;;7.98;100.00
21234;BME280;10774;42.178;26.578;2023-11-18T10:16:34;98905.31;;;8.10;100.00
21234;BME280;10774;42.178;26.578;2023-11-18T10:19:01;98901.28;;;7.92;100.00
21234;BME280;10774;42.178;26.578;2023-11-18T10:21:37;98895.91;;;8.05;100.00
21234;BME280;10774;42.178;26.578;2023-11-18T10:24:06;98889.50;;;8.07;100.00
21234;BME280;10774;42.178;26.578;2023-11-18T10:26:43;98921.97;;;8.01;100.00
21234;BME280;10774;42.178;26.578;2023-11-18T10:29:10;98888.88;;;7.91;100.00
21234;BME280;10774;42.178;26.578;2023-11-18T10:31:41;98898.25;;;8.09;100.00
21234;BME280;10774;42.178;26.578;2023-11-18T10:34:14;98896.03;;;8.03;100.00
21234;BME280;10774;42.178;26.578;2023-11-18T10:36:41;98899.75;;;8.01;100.00
21234;BME280;10774;42.178;26.578;2023-11-18T10:39:12;98895.06;;;8.04;100.00
21234;BME280;10774;42.178;26.578;2023-11-18T10:41:42;98879.75;;;8.06;100.00
21234;BME280;10774;42.178;26.578;2023-11-18T10:44:08;98902.31;;;8.28;99.56
21234;BME280;10774;42.178;26.578;2023-11-18T10:46:50;98901.66;;;8.11;94.17
21234;BME280;10774;42.178;26.578;2023-11-18T10:49:18;98898.91;;;8.00;95.40
21234;BME280;10774;42.178;26.578;2023-11-18T10:51:44;98896.69;;;8.07;94.09
21234;BME280;10774;42.178;26.578;2023-11-18T10:54:13;98900.72;;;8.12;92.85
21234;BME280;10774;42.178;26.578;2023-11-18T10:56:49;98894.41;;;8.39;96.74
21234;BME280;10774;42.178;26.578;2023-11-18T10:59:15;98901.25;;;8.18;92.29
21234;BME280;10774;42.178;26.578;2023-11-18T11:01:44;98895.91;;;8.18;94.49
21234;BME280;10774;42.178;26.578;2023-11-18T11:06:40;98901.66;;;8.11;94.70
21234;BME280;10774;42.178;26.578;2023-11-18T11:09:07;98890.13;;;7.85;91.43
21234;BME280;10774;42.178;26.578;2023-11-18T11:11:47;98894.00;;;7.94;92.64
21234;BME280;10774;42.178;26.578;2023-11-18T11:14:15;98863.97;;;7.78;94.25
21234;BME280;10774;42.178;26.578;2023-11-18T11:16:47;98889.28;;;7.85;93.57
21234;BME280;10774;42.178;26.578;2023-11-18T11:19:25;98893.25;;;7.92;93.51
21234;BME280;10774;42.178;26.578;2023-11-18T11:22:07;98887.38;;;8.12;96.65
21234;BME280;10774;42.178;26.578;2023-11-18T11:27:47;98880.94;;;8.15;94.20
21234;BME280;10774;42.178;26.578;2023-11-18T11:30:22;98890.13;;;8.24;94.37
21234;BME280;10774;42.178;26.578;2023-11-18T11:36:11;98881.16;;;8.12;95.63
21234;BME280;10774;42.178;26.578;2023-11-18T11:38:37;98876.69;;;8.12;94.00
21234;BME280;10774;42.178;26.578;2023-11-18T11:41:06;98884.56;;;8.01;95.53
21234;BME280;10774;42.178;26.578;2023-11-18T11:43:34;98884.47;;;7.90;94.98
21234;BME280;10774;42.178;26.578;2023-11-18T11:46:01;98901.88;;;7.96;95.92
21234;BME280;10774;42.178;26.578;2023-11-18T11:48:35;98889.72;;;7.92;93.57
21234;BME280;10774;42.178;26.578;2023-11-18T11:53:53;98901.91;;;8.08;97.26
21234;BME280;10774;42.178;26.578;2023-11-18T11:56:20;98876.06;;;7.96;97.16
21234;BME280;10774;42.178;26.578;2023-11-18T11:58:46;98899.34;;;7.94;97.02
21234;BME280;10774;42.178;26.578;2023-11-18T12:01:27;98904.25;;;8.00;97.67
21234;BME280;10774;42.178;26.578;2023-11-18T12:04:08;98889.72;;;8.04;98.39
21234;BME280;10774;42.178;26.578;2023-11-18T12:06:42;98893.78;;;7.97;96.23
21234;BME280;10774;42.178;26.578;2023-11-18T12:09:09;98898.78;;;8.15;97.60
21234;BME280;10774;42.178;26.578;2023-11-18T12:11:36;98896.53;;;8.34;98.45
21234;BME280;10774;42.178;26.578;2023-11-18T12:14:11;98915.25;;;8.08;99.06
21234;BME280;10774;42.178;26.578;2023-11-18T12:17:04;98915.78;;;8.26;95.37
21234;BME280;10774;42.178;26.578;2023-11-18T12:19:46;98911.97;;;8.18;92.56
21234;BME280;10774;42.178;26.578;2023-11-18T12:22:22;98906.31;;;7.97;95.31
21234;BME280;10774;42.178;26.578;2023-11-18T12:35:22;98920.19;;;7.76;96.69
21234;BME280;10774;42.178;26.578;2023-11-18T12:40:53;98936.50;;;7.84;95.89
21234;BME280;10774;42.178;26.578;2023-11-18T12:48:47;98955.53;;;7.80;94.31
21234;BME280;10774;42.178;26.578;2023-11-18T12:51:17;98938.28;;;7.58;94.91
21234;BME280;10774;42.178;26.578;2023-11-18T12:53:48;98930.75;;;7.65;96.30
21234;BME280;10774;42.178;26.578;2023-11-18T12:56:19;98940.56;;;7.65;94.76
21234;BME280;10774;42.178;26.578;2023-11-18T12:58:48;98934.34;;;7.51;94.37
21234;BME280;10774;42.178;26.578;2023-11-18T13:01:14;98928.38;;;7.60;94.93
21234;BME280;10774;42.178;26.578;2023-11-18T13:03:42;98920.25;;;7.49;94.96
21234;BME280;10774;42.178;26.578;2023-11-18T13:06:10;98945.91;;;7.25;96.74
21234;BME280;10774;42.178;26.578;2023-11-18T13:08:38;98944.78;;;7.42;96.80
21234;BME280;10774;42.178;26.578;2023-11-18T13:11:04;98939.00;;;7.35;96.21
21234;BME280;10774;42.178;26.578;2023-11-18T13:13:38;98941.94;;;7.18;95.66
21234;BME280;10774;42.178;26.578;2023-11-18T13:16:07;98938.31;;;7.19;95.29
21234;BME280;10774;42.178;26.578;2023-11-18T13:18:46;98928.94;;;7.26;93.74
21234;BME280;10774;42.178;26.578;2023-11-18T13:21:18;98931.66;;;7.12;91.57
21234;BME280;10774;42.178;26.578;2023-11-18T13:23:45;98942.38;;;7.24;91.15
21234;BME280;10774;42.178;26.578;2023-11-18T13:26:16;98935.97;;;7.27;94.41
21234;BME280;10774;42.178;26.578;2023-11-18T13:28:42;98947.75;;;7.37;93.35
21234;BME280;10774;42.178;26.578;2023-11-18T13:31:10;98940.03;;;7.20;91.83